• Join FlightAware (Why Join?)
  • Login
  • US Flag 
10:11AM EDT


 

Airport Tracker/Info


-or-


 

Live Flight TrackerFlight Track Log ✈ FLG3427 ✈ 12-Sep-2013 ✈ KCVG - KDCA

Flight Track Log - Related Links

Times and Time Zones

All times are in EDT time to prevent confusion due to time zone crossing. See the FLG3427 flight status page for this flight to view local times or setup timezone preferences in your user account.

Time Position Orientation Groundspeed Altitude Reporting Facility
EDT Latitude Longitude Course Direction KTS MPH feet Rate Location/Type
04:38PM 39.0500 -84.6833 346° North 164 189 1,200  Level Cincinnati TRACON
04:39PM 39.1000 -84.7000 345° North 211 243 3,800 1,800 Climbing Cincinnati TRACON
04:40PM 39.1333 -84.6333 57° Northeast 278 320 5,400 1,980 Climbing Cincinnati TRACON
04:41PM 39.1833 -84.5500 52° Northeast 286 329 7,600 2,160 Climbing Cincinnati TRACON
04:42PM 39.1978 -84.5217 57° Northeast 280 322 8,600 1,800 Climbing Indianapolis Center
04:43PM 39.2447 -84.4289 57° Northeast 295 339 10,500 1,140 Climbing Indianapolis Center
04:44PM 39.3094 -84.2925 58° Northeast 356 410 11,000 240 Climbing Indianapolis Center
04:45PM 39.3219 -84.1500 83° East 391 450 11,000  Level Indianapolis Center
04:46PM 39.3342 -84.0097 84° East 396 456 11,000  Level Indianapolis Center
04:47PM 39.3467 -83.8678 83° East 399 459 11,000  Level Indianapolis Center
04:48PM 39.3575 -83.7272 84° East 398 458 11,000  Level Indianapolis Center
04:49PM 39.3706 -83.5858 83° East 398 458 11,000  Level Indianapolis Center
04:50PM 39.3836 -83.4147 84° East 402 463 11,000  Level Indianapolis Center
04:51PM 39.3958 -83.2722 84° East 403 464 11,000  Level Indianapolis Center
04:52PM 39.4069 -83.1303 84° East 402 463 11,000  Level Indianapolis Center
04:53PM 39.4181 -82.9869 84° East 403 464 11,000  Level Indianapolis Center
04:55PM 39.4178 -82.7935 90° East  Level FlightAware Approximate
04:56PM 39.4031 -82.5353 83° East 393 452 11,000  Level Indianapolis Center
04:57PM 39.4011 -82.3986 91° East 386 444 11,000  Level Indianapolis Center
04:58PM 39.4178 -82.2578 81° East 394 453 11,000  Level Indianapolis Center
04:59PM 39.4322 -82.1200 82° East 389 448 11,000  Level Indianapolis Center
05:00PM 39.4469 -81.9836 82° East 385 443 11,000  Level Indianapolis Center
05:01PM 39.4606 -81.8461 83° East 383 441 11,000  Level Indianapolis Center
05:02PM 39.4693 -81.9105 83° East  Level FlightAware Approximate
05:02PM 39.4753 -81.6814 83° East 383 441 11,000  Level Indianapolis Center
05:03PM 39.4922 -81.5450 81° East 383 441 11,000  Level Indianapolis Center
05:04PM 39.5053 -81.4061 83° East 388 447 11,000  Level Indianapolis Center
05:05PM 39.5197 -81.2689 82° East 385 443 11,000  Level Indianapolis Center
05:06PM 39.5333 -81.1289 83° East 389 448 11,000  Level Indianapolis Center
05:07PM 39.5467 -80.9903 102° East 388 447 11,000  Level Indianapolis Center
05:08PM 39.5611 -80.8475 82° East 396 456 11,000  Level Indianapolis Center
05:08PM 39.5459 -80.9137 83° East  Level FlightAware Approximate
05:09PM 39.5717 -80.7064 84° East 395 455 11,000  Level Indianapolis Center
05:10PM 39.5403 -80.5400 104° East 393 452 11,000  Level Indianapolis Center
05:11PM 39.5131 -80.4014 104° East 397 457 11,000  Level Indianapolis Center
05:13PM 39.4872 -80.2644 104° East 393 452 11,000  Level Indianapolis Center
05:14PM 39.4592 -80.1275 105° East 394 453 11,000  Level Indianapolis Center
05:15PM 39.4091 -80.1981 113° Southeast  Level FlightAware Approximate
05:15PM 39.4325 -79.9897 104° East 395 455 11,100  Level Indianapolis Center
05:16PM 39.3715 -80.0835 113° Southeast  Level FlightAware Approximate
05:16PM 39.4047 -79.8533 105° East 393 452 11,100  Level Indianapolis Center
05:17PM 39.3338 -79.9691 113° Southeast  Level FlightAware Approximate
05:17PM 39.3697 -79.6644 103° East 383 441 11,100  Level Washington Center
05:18PM 39.2960 -79.8548 113° Southeast  Level FlightAware Approximate
05:18PM 39.3408 -79.5286 105° East 383 441 11,100  Level Washington Center
05:19PM 39.2834 -79.7338 90° East  Level FlightAware Approximate
05:19PM 39.3161 -79.3931 103° East 383 441 11,000  Level Washington Center
05:20PM 39.2753 -79.6103 98° East  Level FlightAware Approximate
05:20PM 39.2869 -79.2572 105° East 383 441 11,000  Level Washington Center
05:21PM 39.2618 -79.4873 98° East  Level FlightAware Approximate
05:21PM 39.2553 -79.1325 108° East 396 456 11,000  Level Washington Center
05:22PM 39.2481 -79.3644 98° East  Level FlightAware Approximate
05:22PM 39.2278 -78.9997 105° East 389 448 10,800  Level Washington Center
05:23PM 39.2342 -79.2415 98° East  Level FlightAware Approximate
05:23PM 39.2144 -78.8814 98° East 360 414 10,000  Level Washington Center
05:24PM 39.2257 -79.1178 95° East  Level FlightAware Approximate
05:24PM 39.2044 -78.7872 98° East 311 358 10,000  Level Washington Center
05:25PM 39.2174 -78.9941 95° East  Level FlightAware Approximate
05:25PM 39.1967 -78.6878 96° East 282 325 10,000  Level Washington Center
05:26PM 39.2051 -78.8710 98° East  Level FlightAware Approximate
05:26PM 39.1867 -78.5908 98° East 277 319 10,000  Level Washington Center
05:27PM 39.1923 -78.7480 98° East  Level FlightAware Approximate
05:27PM 39.1786 -78.4942 96° East 277 319 10,000  Level Washington Center
05:28PM 39.1794 -78.6250 98° East  Level FlightAware Approximate
05:28PM 39.1664 -78.3972 99° East 277 319 10,000  Level Washington Center
05:29PM 39.1663 -78.5021 98° East  Level FlightAware Approximate
05:29PM 39.1725 -78.3036 85° East 277 319 10,000  Level Washington Center
05:30PM 39.1532 -78.3792 98° East  Level FlightAware Approximate
05:30PM 39.2264 -78.3164 350° North 194 223 10,000  Level Washington Center
05:31PM 39.1298 -78.2591 106° East  Level FlightAware Approximate
05:31PM 39.2292 -78.3808 273° West 90 104 10,000  Level Washington Center
05:32PM 39.1065 -78.1389 102° East  Level FlightAware Approximate
05:32PM 39.2331 -78.4803 273° West 162 186 10,000  Level Washington Center
05:33PM 39.0723 -78.0282 104° East  Level FlightAware Approximate
05:33PM 39.2333 -78.5606 270° West 211 243 10,000  Level Washington Center
05:34PM 39.0389 -77.9139 117° Southeast  Level FlightAware Approximate
05:34PM 39.2169 -78.6322 254° West 221 254 10,000  Level Washington Center
05:35PM 39.0155 -77.7966 113° Southeast  Level FlightAware Approximate
05:35PM 39.1681 -78.5794 140° Southeast 137 158 10,000  Level Washington Center
05:36PM 38.9906 -77.6788 108° East  Level FlightAware Approximate
05:36PM 39.1664 -78.4775 91° East 160 184 10,000  Level Washington Center
05:37PM 38.9539 -77.5655 108° East  Level FlightAware Approximate
05:37PM 39.1625 -78.3756 93° East 230 265 10,000  Level Washington Center
05:38PM 38.9250 -77.4501 123° Southeast  Level FlightAware Approximate
05:38PM 39.1936 -78.2939 64° Northeast 246 283 10,000  Level Washington Center
05:39PM 38.9000 -77.3319 90° East  Level FlightAware Approximate
05:39PM 39.2278 -78.3486 309° West 98 113 10,000  Level Washington Center
05:40PM 38.8800 -77.2132 102° East  Level FlightAware Approximate
05:40PM 39.2300 -78.4344 272° West 131 151 10,000  Level Washington Center
05:41PM 38.8599 -77.0924 102° East  Level FlightAware Approximate
05:41PM 39.2322 -78.5150 272° West 189 217 10,000  Level Washington Center
05:42PM 38.8500 -77.0333 102° East  Level FlightAware Approximate
05:42PM 39.2344 -78.6008 272° West 222 255 10,000  Level Washington Center
05:43PM 38.8519 -77.0377 102° East  Level Estimated
05:43PM 39.1797 -78.6172 193° South 195 224 10,000  Level Washington Center
05:44PM 38.8500 -77.0333 102° East  Level FlightAware Approximate
05:44PM 39.1675 -78.5203 99° East 113 130 10,000  Level Washington Center
05:45PM 38.8519 -77.0377 102° East  Level Estimated
05:45PM 39.1658 -78.4214 91° East 208 239 10,000  Level Washington Center
05:46PM 38.8500 -77.0333 102° East  Level FlightAware Approximate
05:46PM 39.1639 -78.3194 91° East 243 280 10,000  Level Washington Center
05:47PM 38.8519 -77.0377 102° East  Level Estimated
05:47PM 39.1453 -78.2225 104° East 267 307 10,000  Level Washington Center
05:48PM 38.8500 -77.0333 102° East  Level FlightAware Approximate
05:48PM 39.1681 -78.1294 72° East 267 307 9,000  Level Washington Center
05:49PM 38.8519 -77.0377 102° East  Level Estimated
05:49PM 39.1928 -78.0367 71° East 267 307 7,700  Level Washington Center
05:50PM 38.8500 -77.0333 102° East  Level FlightAware Approximate
05:50PM 39.2031 -77.9433 82° East 272 313 6,600  Level Washington Center
05:51PM 38.8519 -77.0377 102° East  Level Estimated
05:51PM 39.2133 -77.8472 82° East 261 300 6,000  Level Washington Center
05:52PM 38.8500 -77.0333 102° East  Level FlightAware Approximate
05:52PM 39.2192 -77.7589 85° East 250 288 6,000  Level Washington Center
05:53PM 38.8519 -77.0377 102° East  Level Estimated
05:53PM 39.2269 -77.6733 83° East 245 282 6,000  Level Washington Center
05:54PM 38.8500 -77.0333 102° East  Level FlightAware Approximate
05:54PM 39.2167 -77.6000 100° East 260 299 6,000  Level Potomac TRACON
05:54PM 39.2000 -77.5167 104° East 253 291 6,000 -360 Level Potomac TRACON
05:55PM 38.8519 -77.0377 102° East  Level Estimated
05:55PM 39.1833 -77.4333 104° East 255 293 5,400  Level Potomac TRACON
05:56PM 38.8500 -77.0333 102° East  Level FlightAware Approximate
05:56PM 39.1833 -77.3500 90° East 247 284 5,000  Level Potomac TRACON
05:57PM 38.8519 -77.0377 102° East  Level Estimated
05:57PM 39.1500 -77.2667 117° Southeast 256 295 5,000  Level Potomac TRACON
05:58PM 38.8500 -77.0333 102° East  Level FlightAware Approximate
05:59PM 39.1167 -77.1833 117° Southeast 254 292 4,900  Level Potomac TRACON
06:00PM 39.0500 -77.1500 159° South 239 275 3,700 -1,080 Descending Potomac TRACON
06:01PM 38.9833 -77.1333 169° South 219 252 2,900 -900 Descending Potomac TRACON
06:02PM 38.9333 -77.1167 165° South 190 219 2,100 -960 Descending Potomac TRACON
06:03PM 38.9000 -77.0833 142° Southeast 154 177 1,000 -900 Descending Potomac TRACON
06:04PM 38.8833 -77.0500 123° Southeast 147 169 400 -600 Descending Potomac TRACON